sensor_id;sensor_type;location;lat;lon;timestamp;P1;durP1;ratioP1;P2;durP2;ratioP2
40204;SDS011;26963;42.666;23.366;2022-08-24T00:00:13;11.38;;;7.88;;
40204;SDS011;26963;42.666;23.366;2022-08-24T00:02:47;9.73;;;7.93;;
40204;SDS011;26963;42.666;23.366;2022-08-24T00:05:14;9.32;;;7.40;;
40204;SDS011;26963;42.666;23.366;2022-08-24T00:07:40;12.65;;;8.32;;
40204;SDS011;26963;42.666;23.366;2022-08-24T00:10:06;8.73;;;7.82;;
40204;SDS011;26963;42.666;23.366;2022-08-24T00:12:33;9.57;;;7.85;;
40204;SDS011;26963;42.666;23.366;2022-08-24T00:14:59;9.27;;;7.50;;
40204;SDS011;26963;42.666;23.366;2022-08-24T00:17:25;8.20;;;7.07;;
40204;SDS011;26963;42.666;23.366;2022-08-24T00:19:51;12.18;;;8.20;;
40204;SDS011;26963;42.666;23.366;2022-08-24T00:22:17;9.27;;;7.90;;
40204;SDS011;26963;42.666;23.366;2022-08-24T00:24:43;10.55;;;8.55;;
40204;SDS011;26963;42.666;23.366;2022-08-24T00:27:08;11.68;;;8.85;;
40204;SDS011;26963;42.666;23.366;2022-08-24T00:29:36;10.38;;;9.02;;
40204;SDS011;26963;42.666;23.366;2022-08-24T00:32:05;10.85;;;8.65;;
40204;SDS011;26963;42.666;23.366;2022-08-24T00:34:31;12.18;;;8.60;;
40204;SDS011;26963;42.666;23.366;2022-08-24T00:37:12;15.02;;;9.43;;
40204;SDS011;26963;42.666;23.366;2022-08-24T00:39:37;14.85;;;9.57;;
40204;SDS011;26963;42.666;23.366;2022-08-24T00:42:03;12.80;;;9.85;;
40204;SDS011;26963;42.666;23.366;2022-08-24T00:44:29;11.90;;;9.75;;
40204;SDS011;26963;42.666;23.366;2022-08-24T00:46:56;12.32;;;9.75;;
40204;SDS011;26963;42.666;23.366;2022-08-24T00:49:26;11.45;;;10.05;;
40204;SDS011;26963;42.666;23.366;2022-08-24T00:52:18;16.13;;;11.18;;
40204;SDS011;26963;42.666;23.366;2022-08-24T00:55:04;13.82;;;10.70;;
40204;SDS011;26963;42.666;23.366;2022-08-24T00:57:36;15.63;;;10.57;;
40204;SDS011;26963;42.666;23.366;2022-08-24T01:00:07;11.95;;;10.45;;
40204;SDS011;26963;42.666;23.366;2022-08-24T01:02:40;12.43;;;10.77;;
40204;SDS011;26963;42.666;23.366;2022-08-24T01:07:53;15.40;;;10.27;;
40204;SDS011;26963;42.666;23.366;2022-08-24T01:10:20;12.00;;;10.15;;
40204;SDS011;26963;42.666;23.366;2022-08-24T01:12:52;13.85;;;10.90;;
40204;SDS011;26963;42.666;23.366;2022-08-24T01:15:21;13.43;;;10.05;;
40204;SDS011;26963;42.666;23.366;2022-08-24T01:17:47;13.45;;;10.35;;
40204;SDS011;26963;42.666;23.366;2022-08-24T01:20:32;12.55;;;10.77;;
40204;SDS011;26963;42.666;23.366;2022-08-24T01:25:37;16.30;;;11.05;;
40204;SDS011;26963;42.666;23.366;2022-08-24T01:28:09;12.85;;;10.73;;
40204;SDS011;26963;42.666;23.366;2022-08-24T01:30:39;13.98;;;10.90;;
40204;SDS011;26963;42.666;23.366;2022-08-24T01:33:07;14.27;;;10.63;;
40204;SDS011;26963;42.666;23.366;2022-08-24T01:35:34;11.43;;;10.32;;
40204;SDS011;26963;42.666;23.366;2022-08-24T01:38:02;11.70;;;9.98;;
40204;SDS011;26963;42.666;23.366;2022-08-24T01:40:36;14.95;;;11.48;;
40204;SDS011;26963;42.666;23.366;2022-08-24T01:43:07;13.00;;;10.77;;
40204;SDS011;26963;42.666;23.366;2022-08-24T01:45:36;12.90;;;10.57;;
40204;SDS011;26963;42.666;23.366;2022-08-24T01:48:02;11.70;;;10.20;;
40204;SDS011;26963;42.666;23.366;2022-08-24T01:50:28;12.60;;;10.75;;
40204;SDS011;26963;42.666;23.366;2022-08-24T01:52:54;12.15;;;10.90;;
40204;SDS011;26963;42.666;23.366;2022-08-24T01:55:23;13.65;;;10.48;;
40204;SDS011;26963;42.666;23.366;2022-08-24T01:57:49;14.25;;;11.82;;
40204;SDS011;26963;42.666;23.366;2022-08-24T02:00:17;15.15;;;11.82;;
40204;SDS011;26963;42.666;23.366;2022-08-24T02:02:43;17.70;;;13.75;;
40204;SDS011;26963;42.666;23.366;2022-08-24T02:05:09;15.15;;;11.05;;
40204;SDS011;26963;42.666;23.366;2022-08-24T02:07:37;15.27;;;13.50;;
40204;SDS011;26963;42.666;23.366;2022-08-24T02:10:04;16.77;;;14.80;;
40204;SDS011;26963;42.666;23.366;2022-08-24T02:12:32;14.70;;;12.73;;
40204;SDS011;26963;42.666;23.366;2022-08-24T02:15:03;16.13;;;14.50;;
40204;SDS011;26963;42.666;23.366;2022-08-24T02:17:30;16.73;;;14.35;;
40204;SDS011;26963;42.666;23.366;2022-08-24T02:19:56;16.15;;;14.52;;
40204;SDS011;26963;42.666;23.366;2022-08-24T02:22:21;18.70;;;15.63;;
40204;SDS011;26963;42.666;23.366;2022-08-24T02:24:47;23.35;;;17.90;;
40204;SDS011;26963;42.666;23.366;2022-08-24T02:27:13;18.83;;;16.83;;
40204;SDS011;26963;42.666;23.366;2022-08-24T02:29:41;23.45;;;19.83;;
40204;SDS011;26963;42.666;23.366;2022-08-24T02:32:07;21.13;;;18.92;;
40204;SDS011;26963;42.666;23.366;2022-08-24T02:34:33;25.33;;;22.63;;
40204;SDS011;26963;42.666;23.366;2022-08-24T02:37:11;24.48;;;21.83;;
40204;SDS011;26963;42.666;23.366;2022-08-24T02:39:39;25.48;;;22.33;;
40204;SDS011;26963;42.666;23.366;2022-08-24T02:42:05;29.67;;;25.67;;
40204;SDS011;26963;42.666;23.366;2022-08-24T02:44:31;33.10;;;26.17;;
40204;SDS011;26963;42.666;23.366;2022-08-24T02:46:56;29.70;;;24.27;;
40204;SDS011;26963;42.666;23.366;2022-08-24T02:49:22;29.77;;;26.65;;
40204;SDS011;26963;42.666;23.366;2022-08-24T02:51:48;28.85;;;25.75;;
40204;SDS011;26963;42.666;23.366;2022-08-24T02:54:15;28.27;;;24.95;;
40204;SDS011;26963;42.666;23.366;2022-08-24T02:56:42;26.77;;;23.55;;
40204;SDS011;26963;42.666;23.366;2022-08-24T02:59:08;34.35;;;24.65;;
40204;SDS011;26963;42.666;23.366;2022-08-24T03:01:33;25.90;;;23.20;;
40204;SDS011;26963;42.666;23.366;2022-08-24T03:03:59;27.88;;;24.85;;
40204;SDS011;26963;42.666;23.366;2022-08-24T03:06:25;27.45;;;24.17;;
40204;SDS011;26963;42.666;23.366;2022-08-24T03:08:51;28.42;;;25.02;;
40204;SDS011;26963;42.666;23.366;2022-08-24T03:11:16;28.55;;;25.55;;
40204;SDS011;26963;42.666;23.366;2022-08-24T03:13:42;29.38;;;25.50;;
40204;SDS011;26963;42.666;23.366;2022-08-24T03:16:08;30.48;;;24.95;;
40204;SDS011;26963;42.666;23.366;2022-08-24T03:18:33;28.58;;;25.55;;
40204;SDS011;26963;42.666;23.366;2022-08-24T03:20:59;30.10;;;24.10;;
40204;SDS011;26963;42.666;23.366;2022-08-24T03:23:26;27.10;;;23.10;;
40204;SDS011;26963;42.666;23.366;2022-08-24T03:25:55;25.42;;;22.77;;
40204;SDS011;26963;42.666;23.366;2022-08-24T03:28:21;27.15;;;22.67;;
40204;SDS011;26963;42.666;23.366;2022-08-24T03:30:51;25.77;;;22.85;;
40204;SDS011;26963;42.666;23.366;2022-08-24T03:33:16;24.45;;;21.98;;
40204;SDS011;26963;42.666;23.366;2022-08-24T03:35:54;23.00;;;20.70;;
40204;SDS011;26963;42.666;23.366;2022-08-24T03:38:25;22.65;;;20.25;;
40204;SDS011;26963;42.666;23.366;2022-08-24T03:40:51;24.35;;;20.95;;
40204;SDS011;26963;42.666;23.366;2022-08-24T03:43:16;23.40;;;20.20;;
40204;SDS011;26963;42.666;23.366;2022-08-24T03:46:04;21.50;;;19.30;;
40204;SDS011;26963;42.666;23.366;2022-08-24T03:48:31;23.58;;;20.08;;
40204;SDS011;26963;42.666;23.366;2022-08-24T03:50:57;23.42;;;19.55;;
40204;SDS011;26963;42.666;23.366;2022-08-24T03:53:22;22.83;;;20.45;;
40204;SDS011;26963;42.666;23.366;2022-08-24T03:55:48;22.17;;;19.85;;
40204;SDS011;26963;42.666;23.366;2022-08-24T03:58:14;24.17;;;19.45;;
40204;SDS011;26963;42.666;23.366;2022-08-24T04:00:39;19.20;;;17.20;;
40204;SDS011;26963;42.666;23.366;2022-08-24T04:03:08;19.27;;;17.27;;
40204;SDS011;26963;42.666;23.366;2022-08-24T04:05:35;19.38;;;17.45;;
40204;SDS011;26963;42.666;23.366;2022-08-24T04:08:01;19.75;;;16.35;;
40204;SDS011;26963;42.666;23.366;2022-08-24T04:10:27;17.70;;;15.90;;
40204;SDS011;26963;42.666;23.366;2022-08-24T04:12:52;18.60;;;16.65;;
40204;SDS011;26963;42.666;23.366;2022-08-24T04:15:21;19.67;;;17.45;;
40204;SDS011;26963;42.666;23.366;2022-08-24T04:17:48;17.73;;;15.77;;
40204;SDS011;26963;42.666;23.366;2022-08-24T04:20:14;17.52;;;14.65;;
40204;SDS011;26963;42.666;23.366;2022-08-24T04:22:39;17.80;;;15.52;;
40204;SDS011;26963;42.666;23.366;2022-08-24T04:25:05;17.83;;;15.93;;
40204;SDS011;26963;42.666;23.366;2022-08-24T04:27:32;19.30;;;14.50;;
40204;SDS011;26963;42.666;23.366;2022-08-24T04:29:58;18.02;;;13.73;;
40204;SDS011;26963;42.666;23.366;2022-08-24T04:32:24;15.68;;;14.00;;
40204;SDS011;26963;42.666;23.366;2022-08-24T04:34:49;16.20;;;14.55;;
40204;SDS011;26963;42.666;23.366;2022-08-24T04:37:24;21.10;;;14.10;;
40204;SDS011;26963;42.666;23.366;2022-08-24T04:39:50;18.38;;;14.73;;
40204;SDS011;26963;42.666;23.366;2022-08-24T04:42:17;17.60;;;13.80;;
40204;SDS011;26963;42.666;23.366;2022-08-24T04:44:44;16.63;;;13.80;;
40204;SDS011;26963;42.666;23.366;2022-08-24T04:47:09;15.35;;;13.75;;
40204;SDS011;26963;42.666;23.366;2022-08-24T04:49:35;18.30;;;13.77;;
40204;SDS011;26963;42.666;23.366;2022-08-24T04:52:02;15.40;;;13.60;;
40204;SDS011;26963;42.666;23.366;2022-08-24T04:54:31;15.68;;;12.40;;
40204;SDS011;26963;42.666;23.366;2022-08-24T04:56:57;17.58;;;13.63;;
40204;SDS011;26963;42.666;23.366;2022-08-24T04:59:22;15.27;;;12.30;;
40204;SDS011;26963;42.666;23.366;2022-08-24T05:01:48;14.80;;;12.38;;
40204;SDS011;26963;42.666;23.366;2022-08-24T05:04:14;15.95;;;12.57;;
40204;SDS011;26963;42.666;23.366;2022-08-24T05:06:40;14.88;;;12.85;;
40204;SDS011;26963;42.666;23.366;2022-08-24T05:09:06;14.32;;;12.82;;
40204;SDS011;26963;42.666;23.366;2022-08-24T05:11:34;13.48;;;12.07;;
40204;SDS011;26963;42.666;23.366;2022-08-24T05:14:02;15.93;;;12.57;;
40204;SDS011;26963;42.666;23.366;2022-08-24T05:16:31;12.88;;;11.40;;
40204;SDS011;26963;42.666;23.366;2022-08-24T05:18:59;19.85;;;11.73;;
40204;SDS011;26963;42.666;23.366;2022-08-24T05:21:25;13.38;;;11.52;;
40204;SDS011;26963;42.666;23.366;2022-08-24T05:23:52;13.18;;;11.88;;
40204;SDS011;26963;42.666;23.366;2022-08-24T05:26:22;16.45;;;11.73;;
40204;SDS011;26963;42.666;23.366;2022-08-24T05:28:52;13.20;;;11.80;;
40204;SDS011;26963;42.666;23.366;2022-08-24T05:31:20;13.50;;;11.43;;
40204;SDS011;26963;42.666;23.366;2022-08-24T05:33:50;14.27;;;11.18;;
40204;SDS011;26963;42.666;23.366;2022-08-24T05:36:29;11.82;;;10.63;;
40204;SDS011;26963;42.666;23.366;2022-08-24T05:39:00;11.93;;;10.73;;
40204;SDS011;26963;42.666;23.366;2022-08-24T05:41:28;11.63;;;10.02;;
40204;SDS011;26963;42.666;23.366;2022-08-24T05:43:54;20.33;;;17.35;;
40204;SDS011;26963;42.666;23.366;2022-08-24T05:46:20;13.45;;;12.05;;
40204;SDS011;26963;42.666;23.366;2022-08-24T05:48:46;12.80;;;9.98;;
40204;SDS011;26963;42.666;23.366;2022-08-24T05:51:12;11.35;;;8.95;;
40204;SDS011;26963;42.666;23.366;2022-08-24T05:53:38;14.02;;;9.90;;
40204;SDS011;26963;42.666;23.366;2022-08-24T05:56:06;11.52;;;8.95;;
40204;SDS011;26963;42.666;23.366;2022-08-24T05:58:34;11.50;;;9.13;;
40204;SDS011;26963;42.666;23.366;2022-08-24T06:01:09;11.38;;;10.15;;
40204;SDS011;26963;42.666;23.366;2022-08-24T06:03:40;15.45;;;10.00;;
40204;SDS011;26963;42.666;23.366;2022-08-24T06:06:07;11.95;;;9.30;;
40204;SDS011;26963;42.666;23.366;2022-08-24T06:08:39;15.50;;;10.38;;
40204;SDS011;26963;42.666;23.366;2022-08-24T06:11:12;16.95;;;10.05;;
40204;SDS011;26963;42.666;23.366;2022-08-24T06:14:09;10.80;;;8.68;;
40204;SDS011;26963;42.666;23.366;2022-08-24T06:16:42;14.02;;;9.38;;
40204;SDS011;26963;42.666;23.366;2022-08-24T06:19:16;16.15;;;11.60;;
40204;SDS011;26963;42.666;23.366;2022-08-24T06:21:44;9.23;;;8.20;;
40204;SDS011;26963;42.666;23.366;2022-08-24T06:24:11;11.50;;;9.70;;
40204;SDS011;26963;42.666;23.366;2022-08-24T06:26:39;13.68;;;9.23;;
40204;SDS011;26963;42.666;23.366;2022-08-24T06:29:24;11.43;;;8.13;;
40204;SDS011;26963;42.666;23.366;2022-08-24T06:31:50;10.27;;;8.68;;
40204;SDS011;26963;42.666;23.366;2022-08-24T06:34:16;12.43;;;8.85;;
40204;SDS011;26963;42.666;23.366;2022-08-24T06:36:52;12.38;;;9.02;;
40204;SDS011;26963;42.666;23.366;2022-08-24T06:39:18;14.88;;;10.75;;
40204;SDS011;26963;42.666;23.366;2022-08-24T06:41:45;11.68;;;9.68;;
40204;SDS011;26963;42.666;23.366;2022-08-24T06:44:11;8.82;;;7.80;;
40204;SDS011;26963;42.666;23.366;2022-08-24T06:46:36;11.25;;;10.07;;
40204;SDS011;26963;42.666;23.366;2022-08-24T06:49:02;10.32;;;8.45;;
40204;SDS011;26963;42.666;23.366;2022-08-24T06:51:28;13.57;;;10.07;;
40204;SDS011;26963;42.666;23.366;2022-08-24T06:53:53;10.18;;;8.25;;
40204;SDS011;26963;42.666;23.366;2022-08-24T06:56:22;8.88;;;7.00;;
40204;SDS011;26963;42.666;23.366;2022-08-24T06:58:48;12.60;;;10.55;;
40204;SDS011;26963;42.666;23.366;2022-08-24T07:01:23;9.40;;;8.20;;
40204;SDS011;26963;42.666;23.366;2022-08-24T07:03:51;10.50;;;7.55;;
40204;SDS011;26963;42.666;23.366;2022-08-24T07:06:20;9.02;;;6.03;;
40204;SDS011;26963;42.666;23.366;2022-08-24T07:08:46;6.68;;;4.57;;
40204;SDS011;26963;42.666;23.366;2022-08-24T07:11:19;9.07;;;5.68;;
40204;SDS011;26963;42.666;23.366;2022-08-24T07:13:48;6.68;;;5.90;;
40204;SDS011;26963;42.666;23.366;2022-08-24T07:16:17;14.38;;;6.00;;
40204;SDS011;26963;42.666;23.366;2022-08-24T07:18:47;9.80;;;5.82;;
40204;SDS011;26963;42.666;23.366;2022-08-24T07:21:13;11.30;;;8.70;;
40204;SDS011;26963;42.666;23.366;2022-08-24T07:23:46;8.93;;;6.95;;
40204;SDS011;26963;42.666;23.366;2022-08-24T07:26:15;7.43;;;5.43;;
40204;SDS011;26963;42.666;23.366;2022-08-24T07:28:47;6.43;;;4.68;;
40204;SDS011;26963;42.666;23.366;2022-08-24T07:33:58;6.53;;;4.53;;
40204;SDS011;26963;42.666;23.366;2022-08-24T07:36:38;5.75;;;4.22;;
40204;SDS011;26963;42.666;23.366;2022-08-24T07:39:12;7.53;;;4.78;;
40204;SDS011;26963;42.666;23.366;2022-08-24T07:41:39;6.43;;;5.38;;
40204;SDS011;26963;42.666;23.366;2022-08-24T07:44:06;7.60;;;4.70;;
40204;SDS011;26963;42.666;23.366;2022-08-24T07:46:33;5.70;;;4.35;;
40204;SDS011;26963;42.666;23.366;2022-08-24T07:48:58;4.75;;;4.07;;
40204;SDS011;26963;42.666;23.366;2022-08-24T07:51:24;5.57;;;3.88;;
40204;SDS011;26963;42.666;23.366;2022-08-24T07:53:51;7.72;;;4.82;;
40204;SDS011;26963;42.666;23.366;2022-08-24T07:56:17;4.72;;;3.88;;
40204;SDS011;26963;42.666;23.366;2022-08-24T07:58:42;5.30;;;3.80;;
40204;SDS011;26963;42.666;23.366;2022-08-24T08:01:08;5.47;;;3.10;;
40204;SDS011;26963;42.666;23.366;2022-08-24T08:03:40;4.53;;;3.60;;
40204;SDS011;26963;42.666;23.366;2022-08-24T08:06:06;4.13;;;3.38;;
40204;SDS011;26963;42.666;23.366;2022-08-24T08:08:34;4.70;;;3.50;;
40204;SDS011;26963;42.666;23.366;2022-08-24T08:11:01;5.10;;;3.80;;
40204;SDS011;26963;42.666;23.366;2022-08-24T08:13:28;5.85;;;4.57;;
40204;SDS011;26963;42.666;23.366;2022-08-24T08:15:55;5.78;;;4.32;;
40204;SDS011;26963;42.666;23.366;2022-08-24T08:18:23;8.55;;;4.10;;
40204;SDS011;26963;42.666;23.366;2022-08-24T08:20:49;7.75;;;5.47;;
40204;SDS011;26963;42.666;23.366;2022-08-24T08:23:18;7.40;;;4.07;;
40204;SDS011;26963;42.666;23.366;2022-08-24T08:26:03;8.52;;;4.65;;
40204;SDS011;26963;42.666;23.366;2022-08-24T08:28:31;6.38;;;4.05;;
40204;SDS011;26963;42.666;23.366;2022-08-24T08:30:58;8.52;;;4.50;;
40204;SDS011;26963;42.666;23.366;2022-08-24T08:33:28;8.50;;;4.40;;
40204;SDS011;26963;42.666;23.366;2022-08-24T08:36:12;6.22;;;4.68;;
40204;SDS011;26963;42.666;23.366;2022-08-24T08:38:42;4.80;;;4.13;;
40204;SDS011;26963;42.666;23.366;2022-08-24T08:43:41;4.67;;;3.70;;
40204;SDS011;26963;42.666;23.366;2022-08-24T08:57:01;10.40;;;7.00;;
40204;SDS011;26963;42.666;23.366;2022-08-24T09:05:36;11.85;;;9.77;;
40204;SDS011;26963;42.666;23.366;2022-08-24T09:10:56;6.32;;;4.15;;
40204;SDS011;26963;42.666;23.366;2022-08-24T09:22:26;5.78;;;3.80;;
40204;SDS011;26963;42.666;23.366;2022-08-24T09:30:20;6.72;;;3.80;;
40204;SDS011;26963;42.666;23.366;2022-08-24T09:46:31;6.57;;;4.40;;
40204;SDS011;26963;42.666;23.366;2022-08-24T09:55:06;6.72;;;4.03;;
40204;SDS011;26963;42.666;23.366;2022-08-24T10:00:49;7.43;;;4.57;;
40204;SDS011;26963;42.666;23.366;2022-08-24T10:06:27;5.55;;;4.03;;
40204;SDS011;26963;42.666;23.366;2022-08-24T10:23:34;7.90;;;4.40;;
40204;SDS011;26963;42.666;23.366;2022-08-24T10:26:22;7.50;;;4.80;;
40204;SDS011;26963;42.666;23.366;2022-08-24T10:35:08;8.90;;;5.90;;
40204;SDS011;26963;42.666;23.366;2022-08-24T10:41:11;6.50;;;4.17;;
40204;SDS011;26963;42.666;23.366;2022-08-24T10:43:54;5.90;;;4.13;;
40204;SDS011;26963;42.666;23.366;2022-08-24T10:49:45;7.47;;;4.45;;
40204;SDS011;26963;42.666;23.366;2022-08-24T10:55:31;8.10;;;5.38;;
40204;SDS011;26963;42.666;23.366;2022-08-24T11:01:15;7.35;;;5.15;;
40204;SDS011;26963;42.666;23.366;2022-08-24T11:03:55;8.77;;;5.80;;
40204;SDS011;26963;42.666;23.366;2022-08-24T11:06:34;14.57;;;5.68;;
40204;SDS011;26963;42.666;23.366;2022-08-24T11:09:08;7.38;;;4.93;;
40204;SDS011;26963;42.666;23.366;2022-08-24T11:11:35;7.80;;;5.50;;
40204;SDS011;26963;42.666;23.366;2022-08-24T11:14:23;8.77;;;5.07;;
40204;SDS011;26963;42.666;23.366;2022-08-24T11:16:51;8.60;;;5.13;;
40204;SDS011;26963;42.666;23.366;2022-08-24T11:22:36;8.48;;;4.68;;
40204;SDS011;26963;42.666;23.366;2022-08-24T11:24:47;9.10;;;5.40;;
40204;SDS011;26963;42.666;23.366;2022-08-24T11:27:22;7.32;;;5.10;;
40204;SDS011;26963;42.666;23.366;2022-08-24T11:30:00;7.13;;;5.18;;
40204;SDS011;26963;42.666;23.366;2022-08-24T11:32:54;8.05;;;4.07;;
40204;SDS011;26963;42.666;23.366;2022-08-24T11:35:43;8.32;;;4.60;;
40204;SDS011;26963;42.666;23.366;2022-08-24T11:38:14;8.00;;;5.07;;
40204;SDS011;26963;42.666;23.366;2022-08-24T11:44:00;8.38;;;4.53;;
40204;SDS011;26963;42.666;23.366;2022-08-24T11:51:53;9.27;;;5.55;;
40204;SDS011;26963;42.666;23.366;2022-08-24T11:54:37;7.50;;;5.10;;
40204;SDS011;26963;42.666;23.366;2022-08-24T11:57:17;6.90;;;5.25;;
40204;SDS011;26963;42.666;23.366;2022-08-24T12:00:06;9.73;;;5.72;;
40204;SDS011;26963;42.666;23.366;2022-08-24T12:02:54;9.25;;;5.45;;
40204;SDS011;26963;42.666;23.366;2022-08-24T12:21:49;8.55;;;5.72;;
40204;SDS011;26963;42.666;23.366;2022-08-24T12:24:42;8.68;;;5.57;;
40204;SDS011;26963;42.666;23.366;2022-08-24T12:27:15;7.00;;;5.75;;
40204;SDS011;26963;42.666;23.366;2022-08-24T12:32:34;8.35;;;5.65;;
40204;SDS011;26963;42.666;23.366;2022-08-24T12:35:07;13.02;;;6.25;;
40204;SDS011;26963;42.666;23.366;2022-08-24T12:37:59;7.97;;;5.70;;
40204;SDS011;26963;42.666;23.366;2022-08-24T12:40:42;12.55;;;6.75;;
40204;SDS011;26963;42.666;23.366;2022-08-24T12:43:40;9.07;;;5.53;;
40204;SDS011;26963;42.666;23.366;2022-08-24T12:46:10;11.30;;;6.60;;
40204;SDS011;26963;42.666;23.366;2022-08-24T12:51:20;9.43;;;6.28;;
40204;SDS011;26963;42.666;23.366;2022-08-24T12:59:41;18.60;;;6.65;;
40204;SDS011;26963;42.666;23.366;2022-08-24T13:09:46;8.77;;;5.70;;
40204;SDS011;26963;42.666;23.366;2022-08-24T13:33:44;11.85;;;6.10;;
40204;SDS011;26963;42.666;23.366;2022-08-24T13:39:54;12.00;;;6.90;;
40204;SDS011;26963;42.666;23.366;2022-08-24T13:47:46;14.35;;;7.18;;
40204;SDS011;26963;42.666;23.366;2022-08-24T14:04:08;14.87;;;7.00;;
40204;SDS011;26963;42.666;23.366;2022-08-24T14:20:23;12.68;;;6.00;;
40204;SDS011;26963;42.666;23.366;2022-08-24T14:23:08;9.88;;;6.53;;
40204;SDS011;26963;42.666;23.366;2022-08-24T14:26:21;12.25;;;7.78;;
40204;SDS011;26963;42.666;23.366;2022-08-24T14:29:23;12.93;;;7.43;;
40204;SDS011;26963;42.666;23.366;2022-08-24T14:34:30;12.13;;;7.53;;
40204;SDS011;26963;42.666;23.366;2022-08-24T14:37:04;11.52;;;6.63;;
40204;SDS011;26963;42.666;23.366;2022-08-24T14:42:26;10.18;;;6.80;;
40204;SDS011;26963;42.666;23.366;2022-08-24T14:48:12;14.15;;;6.72;;
40204;SDS011;26963;42.666;23.366;2022-08-24T15:08:08;13.20;;;7.05;;
40204;SDS011;26963;42.666;23.366;2022-08-24T15:10:55;17.42;;;6.43;;
40204;SDS011;26963;42.666;23.366;2022-08-24T15:13:28;13.65;;;6.40;;
40204;SDS011;26963;42.666;23.366;2022-08-24T15:16:32;11.82;;;6.50;;
40204;SDS011;26963;42.666;23.366;2022-08-24T15:29:55;12.73;;;6.60;;
40204;SDS011;26963;42.666;23.366;2022-08-24T15:32:39;13.50;;;7.10;;
40204;SDS011;26963;42.666;23.366;2022-08-24T15:35:21;16.52;;;7.38;;
40204;SDS011;26963;42.666;23.366;2022-08-24T15:41:00;16.05;;;6.80;;
40204;SDS011;26963;42.666;23.366;2022-08-24T15:43:29;17.95;;;7.82;;
40204;SDS011;26963;42.666;23.366;2022-08-24T15:45:56;22.52;;;7.38;;
40204;SDS011;26963;42.666;23.366;2022-08-24T15:48:23;17.95;;;7.38;;
40204;SDS011;26963;42.666;23.366;2022-08-24T15:50:57;14.32;;;7.32;;
40204;SDS011;26963;42.666;23.366;2022-08-24T15:53:35;16.20;;;7.13;;
40204;SDS011;26963;42.666;23.366;2022-08-24T15:58:54;16.90;;;7.18;;
40204;SDS011;26963;42.666;23.366;2022-08-24T16:01:31;21.35;;;7.65;;
40204;SDS011;26963;42.666;23.366;2022-08-24T16:07:02;21.52;;;7.30;;
40204;SDS011;26963;42.666;23.366;2022-08-24T16:12:01;16.38;;;7.38;;
40204;SDS011;26963;42.666;23.366;2022-08-24T16:14:37;17.73;;;7.75;;
40204;SDS011;26963;42.666;23.366;2022-08-24T16:17:19;17.75;;;7.50;;
40204;SDS011;26963;42.666;23.366;2022-08-24T16:19:59;25.27;;;7.80;;
40204;SDS011;26963;42.666;23.366;2022-08-24T16:22:37;19.98;;;8.05;;
40204;SDS011;26963;42.666;23.366;2022-08-24T16:27:57;20.80;;;8.30;;
40204;SDS011;26963;42.666;23.366;2022-08-24T16:35:57;23.45;;;7.97;;
40204;SDS011;26963;42.666;23.366;2022-08-24T16:38:24;22.17;;;8.18;;
40204;SDS011;26963;42.666;23.366;2022-08-24T16:40:50;24.70;;;9.60;;
40204;SDS011;26963;42.666;23.366;2022-08-24T16:43:16;22.02;;;8.02;;
40204;SDS011;26963;42.666;23.366;2022-08-24T16:45:41;24.38;;;8.45;;
40204;SDS011;26963;42.666;23.366;2022-08-24T16:48:07;22.05;;;8.63;;
40204;SDS011;26963;42.666;23.366;2022-08-24T16:50:33;28.52;;;10.05;;
40204;SDS011;26963;42.666;23.366;2022-08-24T16:52:58;30.20;;;10.60;;
40204;SDS011;26963;42.666;23.366;2022-08-24T16:55:24;32.88;;;10.40;;
40204;SDS011;26963;42.666;23.366;2022-08-24T16:57:52;23.63;;;9.57;;
40204;SDS011;26963;42.666;23.366;2022-08-24T17:00:19;29.90;;;9.43;;
40204;SDS011;26963;42.666;23.366;2022-08-24T17:02:46;27.80;;;9.82;;
40204;SDS011;26963;42.666;23.366;2022-08-24T17:05:16;26.35;;;9.85;;
40204;SDS011;26963;42.666;23.366;2022-08-24T17:07:42;23.17;;;8.88;;
40204;SDS011;26963;42.666;23.366;2022-08-24T17:10:09;30.25;;;9.27;;
40204;SDS011;26963;42.666;23.366;2022-08-24T17:12:39;35.00;;;9.32;;
40204;SDS011;26963;42.666;23.366;2022-08-24T17:15:06;28.17;;;8.50;;
40204;SDS011;26963;42.666;23.366;2022-08-24T17:17:35;22.45;;;8.63;;
40204;SDS011;26963;42.666;23.366;2022-08-24T17:20:03;30.17;;;8.68;;
40204;SDS011;26963;42.666;23.366;2022-08-24T17:22:31;24.20;;;8.50;;
40204;SDS011;26963;42.666;23.366;2022-08-24T17:24:57;27.98;;;8.50;;
40204;SDS011;26963;42.666;23.366;2022-08-24T17:27:27;26.00;;;8.45;;
40204;SDS011;26963;42.666;23.366;2022-08-24T17:29:59;26.85;;;9.25;;
40204;SDS011;26963;42.666;23.366;2022-08-24T17:32:26;40.97;;;18.73;;
40204;SDS011;26963;42.666;23.366;2022-08-24T17:34:51;45.80;;;22.58;;
40204;SDS011;26963;42.666;23.366;2022-08-24T17:37:29;31.45;;;12.77;;
40204;SDS011;26963;42.666;23.366;2022-08-24T17:39:56;32.05;;;10.68;;
40204;SDS011;26963;42.666;23.366;2022-08-24T17:42:22;27.70;;;9.30;;
40204;SDS011;26963;42.666;23.366;2022-08-24T17:44:48;36.10;;;10.15;;
40204;SDS011;26963;42.666;23.366;2022-08-24T17:47:14;25.25;;;10.10;;
40204;SDS011;26963;42.666;23.366;2022-08-24T17:49:41;23.92;;;9.45;;
40204;SDS011;26963;42.666;23.366;2022-08-24T17:52:06;24.75;;;9.18;;
40204;SDS011;26963;42.666;23.366;2022-08-24T17:54:32;35.08;;;12.30;;
40204;SDS011;26963;42.666;23.366;2022-08-24T17:56:58;46.05;;;20.52;;
40204;SDS011;26963;42.666;23.366;2022-08-24T17:59:35;45.47;;;23.10;;
40204;SDS011;26963;42.666;23.366;2022-08-24T18:02:04;45.63;;;18.98;;
40204;SDS011;26963;42.666;23.366;2022-08-24T18:04:36;36.13;;;15.60;;
40204;SDS011;26963;42.666;23.366;2022-08-24T18:07:05;40.95;;;15.27;;
40204;SDS011;26963;42.666;23.366;2022-08-24T18:09:39;25.15;;;10.77;;
40204;SDS011;26963;42.666;23.366;2022-08-24T18:12:12;28.80;;;9.48;;
40204;SDS011;26963;42.666;23.366;2022-08-24T18:14:41;23.38;;;9.23;;
40204;SDS011;26963;42.666;23.366;2022-08-24T18:17:09;26.35;;;9.18;;
40204;SDS011;26963;42.666;23.366;2022-08-24T18:19:46;19.98;;;8.65;;
40204;SDS011;26963;42.666;23.366;2022-08-24T18:22:13;24.45;;;9.52;;
40204;SDS011;26963;42.666;23.366;2022-08-24T18:24:40;22.02;;;9.38;;
40204;SDS011;26963;42.666;23.366;2022-08-24T18:27:10;27.20;;;9.82;;
40204;SDS011;26963;42.666;23.366;2022-08-24T18:29:40;27.48;;;9.98;;
40204;SDS011;26963;42.666;23.366;2022-08-24T18:32:07;24.67;;;11.00;;
40204;SDS011;26963;42.666;23.366;2022-08-24T18:34:33;29.60;;;10.50;;
40204;SDS011;26963;42.666;23.366;2022-08-24T18:37:08;25.60;;;9.85;;
40204;SDS011;26963;42.666;23.366;2022-08-24T18:39:34;24.05;;;9.65;;
40204;SDS011;26963;42.666;23.366;2022-08-24T18:42:00;25.73;;;11.55;;
40204;SDS011;26963;42.666;23.366;2022-08-24T18:44:29;27.48;;;9.25;;
40204;SDS011;26963;42.666;23.366;2022-08-24T18:46:55;35.20;;;11.65;;
40204;SDS011;26963;42.666;23.366;2022-08-24T18:49:21;30.25;;;10.65;;
40204;SDS011;26963;42.666;23.366;2022-08-24T18:51:47;31.17;;;11.18;;
40204;SDS011;26963;42.666;23.366;2022-08-24T18:54:17;28.77;;;10.95;;
40204;SDS011;26963;42.666;23.366;2022-08-24T18:56:46;27.73;;;10.27;;
40204;SDS011;26963;42.666;23.366;2022-08-24T18:59:12;26.98;;;7.65;;
40204;SDS011;26963;42.666;23.366;2022-08-24T19:01:40;20.42;;;10.48;;